Plainview, Nebraska
Current Conditions -  °F | °C
As of 5:56 PM on Sunday 23 Nov 2014 (Local Time) from KOFK Reporting Station
Few Clouds Few Clouds  
Wind Chill: 33°   Ceiling: Unl
Heat Index: 42°   Visibility: 10mi
Dew Point: 27°   Wind: 20mph
Humidity: 55%   Direction: 320°NW
Pressure: 29.55"   Gusts: 28mph
Location:  42.35°N, 97.79°W
Report Text: KOFK 232356Z AUTO 32017G24KT 10SM FEW050 06/M03 A2955 RMK AO2 SLP013 60000 T00561028 10072 20050 50009
Loading
Personal Weather Stations






























Interactive Weather Map New forecast layout! Learn more

10-Day Weather Forecast

Advertisements
Track Severe Weather on mobile